Tune, Denmark
Current Conditions -  °F | °C
As of 5:20 PM on Friday 19 Dec 2014 (Local Time) from EKRK Reporting Station
Rain Showers Rain Showers  
Wind Chill: 30°   Ceiling: 5000
Heat Index: 39°   Visibility: 6mi
Dew Point: 36°   Wind: 18mph
Humidity: 87%   Direction: 260°W
Pressure: 29.47"   Gusts: 35mph
Location:  55.6°N, 12.18°E
Report Text: EKRK 191620Z AUTO 26016G30KT 9000NDV -SHRA FEW026///SCT037/// BKN050/// 04/02 Q0998 RESHRA
Loading
Personal Weather Stations






























Interactive Weather Map New forecast layout! Learn more

10-Day Weather Forecast

Advertisements
Track Severe Weather on mobile